Cape Hatteras Naval Facility, North Carolina
Current Conditions -  °F | °C
As of 4:51 PM on Friday 24 Oct 2014 (Local Time) from KHSE Reporting Station
Clear Clear  
Wind Chill: 62°   Ceiling: Unl
Heat Index: 62°   Visibility: 10mi
Dew Point: 51°   Wind: 5mph
Humidity: 67%   Direction: 310°NW
Pressure: 29.93"   Gusts: NA
Location:  35.2677°N, 75.5426°W
Report Text: KHSE 242051Z AUTO 31004KT 10SM CLR 17/11 A2993 RMK AO2 SLP133 T01670106 56010 TSNO
Loading
Personal Weather Stations






























Interactive Weather Map
Tropical Storm Tracking
New forecast layout! Learn more

10-Day Weather Forecast

Advertisements
Track Severe Weather on mobile